sensor_id;sensor_type;location;lat;lon;timestamp;P1;durP1;ratioP1;P2;durP2;ratioP2
72674;SDS011;60752;53.962;9.614;2022-12-18T00:03:27;16.02;;;8.07;;
72674;SDS011;60752;53.962;9.614;2022-12-18T00:08:28;23.43;;;8.13;;
72674;SDS011;60752;53.962;9.614;2022-12-18T00:13:29;16.33;;;8.10;;
72674;SDS011;60752;53.962;9.614;2022-12-18T00:18:29;13.50;;;6.70;;
72674;SDS011;60752;53.962;9.614;2022-12-18T00:23:31;13.00;;;6.10;;
72674;SDS011;60752;53.962;9.614;2022-12-18T00:28:33;23.92;;;7.07;;
72674;SDS011;60752;53.962;9.614;2022-12-18T00:33:34;17.50;;;6.43;;
72674;SDS011;60752;53.962;9.614;2022-12-18T00:38:38;13.50;;;6.33;;
72674;SDS011;60752;53.962;9.614;2022-12-18T00:43:39;13.00;;;6.80;;
72674;SDS011;60752;53.962;9.614;2022-12-18T00:48:40;20.40;;;7.53;;
72674;SDS011;60752;53.962;9.614;2022-12-18T00:53:41;17.70;;;7.60;;
72674;SDS011;60752;53.962;9.614;2022-12-18T00:58:42;11.00;;;6.40;;
72674;SDS011;60752;53.962;9.614;2022-12-18T01:03:42;13.70;;;6.77;;
72674;SDS011;60752;53.962;9.614;2022-12-18T01:08:44;14.82;;;6.20;;
72674;SDS011;60752;53.962;9.614;2022-12-18T01:13:45;17.90;;;7.40;;
72674;SDS011;60752;53.962;9.614;2022-12-18T01:18:46;16.48;;;6.72;;
72674;SDS011;60752;53.962;9.614;2022-12-18T01:23:50;13.63;;;6.13;;
72674;SDS011;60752;53.962;9.614;2022-12-18T01:28:51;14.90;;;6.47;;
72674;SDS011;60752;53.962;9.614;2022-12-18T01:33:54;14.67;;;6.33;;
72674;SDS011;60752;53.962;9.614;2022-12-18T01:38:56;11.38;;;5.55;;
72674;SDS011;60752;53.962;9.614;2022-12-18T01:43:59;14.27;;;6.35;;
72674;SDS011;60752;53.962;9.614;2022-12-18T01:49:00;14.20;;;5.70;;
72674;SDS011;60752;53.962;9.614;2022-12-18T01:54:02;11.57;;;6.03;;
72674;SDS011;60752;53.962;9.614;2022-12-18T01:59:03;15.38;;;7.13;;
72674;SDS011;60752;53.962;9.614;2022-12-18T02:04:19;13.65;;;5.35;;
72674;SDS011;60752;53.962;9.614;2022-12-18T02:09:23;9.43;;;4.47;;
72674;SDS011;60752;53.962;9.614;2022-12-18T02:14:31;14.07;;;5.30;;
72674;SDS011;60752;53.962;9.614;2022-12-18T02:19:42;8.75;;;4.43;;
72674;SDS011;60752;53.962;9.614;2022-12-18T02:24:58;11.33;;;5.77;;
72674;SDS011;60752;53.962;9.614;2022-12-18T02:30:05;10.48;;;5.45;;
72674;SDS011;60752;53.962;9.614;2022-12-18T02:35:09;12.73;;;5.05;;
72674;SDS011;60752;53.962;9.614;2022-12-18T02:40:13;12.37;;;6.60;;
72674;SDS011;60752;53.962;9.614;2022-12-18T02:45:16;15.02;;;5.57;;
72674;SDS011;60752;53.962;9.614;2022-12-18T02:50:18;11.48;;;5.47;;
72674;SDS011;60752;53.962;9.614;2022-12-18T02:55:26;9.97;;;4.53;;
72674;SDS011;60752;53.962;9.614;2022-12-18T03:00:34;9.77;;;4.40;;
72674;SDS011;60752;53.962;9.614;2022-12-18T03:05:40;10.63;;;5.53;;
72674;SDS011;60752;53.962;9.614;2022-12-18T03:10:46;9.90;;;4.70;;
72674;SDS011;60752;53.962;9.614;2022-12-18T03:15:52;9.02;;;3.80;;
72674;SDS011;60752;53.962;9.614;2022-12-18T03:20:56;9.93;;;4.50;;
72674;SDS011;60752;53.962;9.614;2022-12-18T03:26:01;6.77;;;3.47;;
72674;SDS011;60752;53.962;9.614;2022-12-18T03:31:07;8.70;;;4.78;;
72674;SDS011;60752;53.962;9.614;2022-12-18T03:36:09;12.70;;;5.68;;
72674;SDS011;60752;53.962;9.614;2022-12-18T03:41:11;12.60;;;5.17;;
72674;SDS011;60752;53.962;9.614;2022-12-18T03:46:17;9.83;;;4.97;;
72674;SDS011;60752;53.962;9.614;2022-12-18T03:51:26;9.75;;;4.80;;
72674;SDS011;60752;53.962;9.614;2022-12-18T03:56:33;10.50;;;5.05;;
72674;SDS011;60752;53.962;9.614;2022-12-18T04:01:42;6.97;;;3.60;;
72674;SDS011;60752;53.962;9.614;2022-12-18T04:06:46;9.82;;;3.83;;
72674;SDS011;60752;53.962;9.614;2022-12-18T04:11:48;8.65;;;4.32;;
72674;SDS011;60752;53.962;9.614;2022-12-18T04:16:50;10.07;;;4.83;;
72674;SDS011;60752;53.962;9.614;2022-12-18T04:21:50;9.90;;;4.30;;
72674;SDS011;60752;53.962;9.614;2022-12-18T04:26:50;10.37;;;3.87;;
72674;SDS011;60752;53.962;9.614;2022-12-18T04:31:53;13.20;;;3.72;;
72674;SDS011;60752;53.962;9.614;2022-12-18T04:36:54;8.38;;;3.97;;
72674;SDS011;60752;53.962;9.614;2022-12-18T04:41:54;13.37;;;4.80;;
72674;SDS011;60752;53.962;9.614;2022-12-18T04:46:56;5.97;;;3.83;;
72674;SDS011;60752;53.962;9.614;2022-12-18T04:51:56;9.57;;;4.73;;
72674;SDS011;60752;53.962;9.614;2022-12-18T04:56:57;9.20;;;4.63;;
72674;SDS011;60752;53.962;9.614;2022-12-18T05:01:58;10.60;;;3.87;;
72674;SDS011;60752;53.962;9.614;2022-12-18T05:06:59;10.00;;;4.68;;
72674;SDS011;60752;53.962;9.614;2022-12-18T05:11:59;8.43;;;4.00;;
72674;SDS011;60752;53.962;9.614;2022-12-18T05:17:01;10.67;;;4.37;;
72674;SDS011;60752;53.962;9.614;2022-12-18T05:22:01;10.68;;;4.07;;
72674;SDS011;60752;53.962;9.614;2022-12-18T05:27:02;12.43;;;5.27;;
72674;SDS011;60752;53.962;9.614;2022-12-18T05:37:34;8.00;;;3.55;;
72674;SDS011;60752;53.962;9.614;2022-12-18T05:42:35;6.43;;;3.50;;
72674;SDS011;60752;53.962;9.614;2022-12-18T05:47:37;9.60;;;3.83;;
72674;SDS011;60752;53.962;9.614;2022-12-18T05:52:37;7.93;;;4.25;;
72674;SDS011;60752;53.962;9.614;2022-12-18T05:57:37;10.83;;;4.03;;
72674;SDS011;60752;53.962;9.614;2022-12-18T06:02:39;9.80;;;4.17;;
72674;SDS011;60752;53.962;9.614;2022-12-18T06:07:40;6.68;;;3.15;;
72674;SDS011;60752;53.962;9.614;2022-12-18T06:12:40;7.30;;;4.13;;
72674;SDS011;60752;53.962;9.614;2022-12-18T06:17:42;10.20;;;4.37;;
72674;SDS011;60752;53.962;9.614;2022-12-18T06:22:42;7.73;;;3.43;;
72674;SDS011;60752;53.962;9.614;2022-12-18T06:27:43;7.07;;;3.63;;
72674;SDS011;60752;53.962;9.614;2022-12-18T06:32:44;10.55;;;3.83;;
72674;SDS011;60752;53.962;9.614;2022-12-18T06:37:45;9.80;;;4.53;;
72674;SDS011;60752;53.962;9.614;2022-12-18T06:42:45;8.47;;;3.47;;
72674;SDS011;60752;53.962;9.614;2022-12-18T06:47:47;6.53;;;3.27;;
72674;SDS011;60752;53.962;9.614;2022-12-18T06:52:47;5.15;;;3.03;;
72674;SDS011;60752;53.962;9.614;2022-12-18T06:57:48;7.13;;;3.57;;
72674;SDS011;60752;53.962;9.614;2022-12-18T07:02:50;8.13;;;3.40;;
72674;SDS011;60752;53.962;9.614;2022-12-18T07:07:50;7.78;;;3.15;;
72674;SDS011;60752;53.962;9.614;2022-12-18T07:12:50;6.90;;;3.83;;
72674;SDS011;60752;53.962;9.614;2022-12-18T07:17:52;10.97;;;4.63;;
72674;SDS011;60752;53.962;9.614;2022-12-18T07:22:53;9.40;;;3.83;;
72674;SDS011;60752;53.962;9.614;2022-12-18T07:27:53;10.03;;;5.30;;
72674;SDS011;60752;53.962;9.614;2022-12-18T07:32:55;7.13;;;3.67;;
72674;SDS011;60752;53.962;9.614;2022-12-18T07:37:56;10.02;;;4.15;;
72674;SDS011;60752;53.962;9.614;2022-12-18T07:42:56;6.87;;;3.90;;
72674;SDS011;60752;53.962;9.614;2022-12-18T07:47:58;6.50;;;3.23;;
72674;SDS011;60752;53.962;9.614;2022-12-18T07:52:58;7.87;;;3.30;;
72674;SDS011;60752;53.962;9.614;2022-12-18T07:58:00;5.83;;;3.10;;
72674;SDS011;60752;53.962;9.614;2022-12-18T08:03:02;10.00;;;3.73;;
72674;SDS011;60752;53.962;9.614;2022-12-18T08:08:03;9.20;;;3.20;;
72674;SDS011;60752;53.962;9.614;2022-12-18T08:13:03;10.20;;;5.27;;
72674;SDS011;60752;53.962;9.614;2022-12-18T08:18:05;5.13;;;2.80;;
72674;SDS011;60752;53.962;9.614;2022-12-18T08:23:05;13.77;;;4.13;;
72674;SDS011;60752;53.962;9.614;2022-12-18T08:28:06;8.20;;;4.20;;
72674;SDS011;60752;53.962;9.614;2022-12-18T08:33:08;8.80;;;4.13;;
72674;SDS011;60752;53.962;9.614;2022-12-18T08:38:08;8.20;;;3.97;;
72674;SDS011;60752;53.962;9.614;2022-12-18T08:43:08;8.33;;;3.93;;
72674;SDS011;60752;53.962;9.614;2022-12-18T08:48:11;12.18;;;4.30;;
72674;SDS011;60752;53.962;9.614;2022-12-18T08:53:11;8.80;;;3.30;;
72674;SDS011;60752;53.962;9.614;2022-12-18T08:58:11;13.83;;;4.10;;
72674;SDS011;60752;53.962;9.614;2022-12-18T09:03:13;8.37;;;4.90;;
72674;SDS011;60752;53.962;9.614;2022-12-18T09:08:14;9.20;;;4.85;;
72674;SDS011;60752;53.962;9.614;2022-12-18T09:13:15;8.40;;;4.17;;
72674;SDS011;60752;53.962;9.614;2022-12-18T09:18:18;10.80;;;4.82;;
72674;SDS011;60752;53.962;9.614;2022-12-18T09:23:20;7.73;;;3.77;;
72674;SDS011;60752;53.962;9.614;2022-12-18T09:28:20;8.43;;;4.20;;
72674;SDS011;60752;53.962;9.614;2022-12-18T09:33:22;8.87;;;3.63;;
72674;SDS011;60752;53.962;9.614;2022-12-18T09:38:23;7.73;;;3.80;;
72674;SDS011;60752;53.962;9.614;2022-12-18T09:43:24;11.07;;;4.67;;
72674;SDS011;60752;53.962;9.614;2022-12-18T09:48:30;8.73;;;4.33;;
72674;SDS011;60752;53.962;9.614;2022-12-18T09:53:34;11.63;;;5.32;;
72674;SDS011;60752;53.962;9.614;2022-12-18T09:58:40;13.85;;;5.80;;
72674;SDS011;60752;53.962;9.614;2022-12-18T10:03:44;17.27;;;4.73;;
72674;SDS011;60752;53.962;9.614;2022-12-18T10:08:45;12.38;;;5.07;;
72674;SDS011;60752;53.962;9.614;2022-12-18T10:13:52;14.85;;;4.80;;
72674;SDS011;60752;53.962;9.614;2022-12-18T10:19:01;10.33;;;4.37;;
72674;SDS011;60752;53.962;9.614;2022-12-18T10:24:13;8.27;;;4.78;;
72674;SDS011;60752;53.962;9.614;2022-12-18T10:29:21;13.30;;;5.70;;
72674;SDS011;60752;53.962;9.614;2022-12-18T10:34:23;14.07;;;5.70;;
72674;SDS011;60752;53.962;9.614;2022-12-18T10:39:24;13.70;;;6.10;;
72674;SDS011;60752;53.962;9.614;2022-12-18T10:44:27;14.77;;;6.35;;
72674;SDS011;60752;53.962;9.614;2022-12-18T10:49:30;14.40;;;5.80;;
72674;SDS011;60752;53.962;9.614;2022-12-18T10:54:32;15.23;;;5.17;;
72674;SDS011;60752;53.962;9.614;2022-12-18T10:59:35;12.30;;;5.77;;
72674;SDS011;60752;53.962;9.614;2022-12-18T11:04:52;10.55;;;5.53;;
72674;SDS011;60752;53.962;9.614;2022-12-18T11:10:15;11.73;;;4.97;;
72674;SDS011;60752;53.962;9.614;2022-12-18T11:15:17;15.23;;;5.67;;
72674;SDS011;60752;53.962;9.614;2022-12-18T11:20:23;12.65;;;5.32;;
72674;SDS011;60752;53.962;9.614;2022-12-18T11:25:30;13.55;;;5.18;;
72674;SDS011;60752;53.962;9.614;2022-12-18T11:30:32;11.43;;;4.67;;
72674;SDS011;60752;53.962;9.614;2022-12-18T11:35:37;10.52;;;5.00;;
72674;SDS011;60752;53.962;9.614;2022-12-18T11:40:42;10.50;;;4.85;;
72674;SDS011;60752;53.962;9.614;2022-12-18T11:45:47;9.67;;;4.87;;
72674;SDS011;60752;53.962;9.614;2022-12-18T11:50:54;12.90;;;5.05;;
72674;SDS011;60752;53.962;9.614;2022-12-18T11:55:59;12.02;;;5.38;;
72674;SDS011;60752;53.962;9.614;2022-12-18T12:01:06;13.40;;;6.50;;
72674;SDS011;60752;53.962;9.614;2022-12-18T12:06:18;12.00;;;5.15;;
72674;SDS011;60752;53.962;9.614;2022-12-18T12:11:25;19.27;;;6.05;;
72674;SDS011;60752;53.962;9.614;2022-12-18T12:16:36;12.27;;;4.77;;
72674;SDS011;60752;53.962;9.614;2022-12-18T12:21:41;9.77;;;4.40;;
72674;SDS011;60752;53.962;9.614;2022-12-18T12:26:42;11.55;;;4.93;;
72674;SDS011;60752;53.962;9.614;2022-12-18T12:31:53;9.10;;;4.93;;
72674;SDS011;60752;53.962;9.614;2022-12-18T12:37:05;9.70;;;4.20;;
72674;SDS011;60752;53.962;9.614;2022-12-18T12:42:18;9.38;;;4.60;;
72674;SDS011;60752;53.962;9.614;2022-12-18T12:47:31;12.40;;;5.80;;
72674;SDS011;60752;53.962;9.614;2022-12-18T12:52:38;9.83;;;4.43;;
72674;SDS011;60752;53.962;9.614;2022-12-18T12:57:43;9.18;;;4.53;;
72674;SDS011;60752;53.962;9.614;2022-12-18T13:02:50;8.85;;;4.05;;
72674;SDS011;60752;53.962;9.614;2022-12-18T13:07:56;7.43;;;4.10;;
72674;SDS011;60752;53.962;9.614;2022-12-18T13:13:04;8.98;;;4.43;;
72674;SDS011;60752;53.962;9.614;2022-12-18T13:23:39;12.90;;;5.37;;
72674;SDS011;60752;53.962;9.614;2022-12-18T13:28:50;10.57;;;3.93;;
72674;SDS011;60752;53.962;9.614;2022-12-18T13:33:52;12.75;;;4.47;;
72674;SDS011;60752;53.962;9.614;2022-12-18T13:39:24;13.18;;;4.53;;
72674;SDS011;60752;53.962;9.614;2022-12-18T13:44:32;14.20;;;5.80;;
72674;SDS011;60752;53.962;9.614;2022-12-18T13:49:36;8.57;;;4.82;;
72674;SDS011;60752;53.962;9.614;2022-12-18T13:54:40;12.70;;;5.50;;
72674;SDS011;60752;53.962;9.614;2022-12-18T13:59:42;7.73;;;3.90;;
72674;SDS011;60752;53.962;9.614;2022-12-18T14:04:44;9.73;;;4.00;;
72674;SDS011;60752;53.962;9.614;2022-12-18T14:09:48;12.25;;;5.35;;
72674;SDS011;60752;53.962;9.614;2022-12-18T14:14:51;10.38;;;5.15;;
72674;SDS011;60752;53.962;9.614;2022-12-18T14:19:52;8.03;;;4.67;;
72674;SDS011;60752;53.962;9.614;2022-12-18T14:25:10;10.32;;;5.03;;
72674;SDS011;60752;53.962;9.614;2022-12-18T14:30:28;11.73;;;5.37;;
72674;SDS011;60752;53.962;9.614;2022-12-18T14:35:30;11.95;;;4.35;;
72674;SDS011;60752;53.962;9.614;2022-12-18T14:40:32;12.67;;;6.17;;
72674;SDS011;60752;53.962;9.614;2022-12-18T14:45:33;8.95;;;5.13;;
72674;SDS011;60752;53.962;9.614;2022-12-18T14:50:34;13.30;;;5.33;;
72674;SDS011;60752;53.962;9.614;2022-12-18T14:55:36;9.57;;;3.70;;
72674;SDS011;60752;53.962;9.614;2022-12-18T15:00:37;11.38;;;4.13;;
72674;SDS011;60752;53.962;9.614;2022-12-18T15:05:41;10.77;;;4.27;;
72674;SDS011;60752;53.962;9.614;2022-12-18T15:10:47;13.87;;;5.53;;
72674;SDS011;60752;53.962;9.614;2022-12-18T15:15:48;12.48;;;4.45;;
72674;SDS011;60752;53.962;9.614;2022-12-18T15:20:49;14.18;;;4.32;;
72674;SDS011;60752;53.962;9.614;2022-12-18T15:25:56;8.10;;;4.27;;
72674;SDS011;60752;53.962;9.614;2022-12-18T15:31:01;10.90;;;5.03;;
72674;SDS011;60752;53.962;9.614;2022-12-18T15:36:05;11.80;;;4.32;;
72674;SDS011;60752;53.962;9.614;2022-12-18T15:41:12;10.40;;;4.33;;
72674;SDS011;60752;53.962;9.614;2022-12-18T15:46:14;13.48;;;4.78;;
72674;SDS011;60752;53.962;9.614;2022-12-18T15:51:17;16.60;;;5.82;;
72674;SDS011;60752;53.962;9.614;2022-12-18T15:56:20;12.07;;;5.73;;
72674;SDS011;60752;53.962;9.614;2022-12-18T16:01:20;19.53;;;5.33;;
72674;SDS011;60752;53.962;9.614;2022-12-18T16:06:23;13.10;;;5.55;;
72674;SDS011;60752;53.962;9.614;2022-12-18T16:11:26;14.57;;;5.03;;
72674;SDS011;60752;53.962;9.614;2022-12-18T16:16:29;14.13;;;5.22;;
72674;SDS011;60752;53.962;9.614;2022-12-18T16:21:29;15.77;;;5.20;;
72674;SDS011;60752;53.962;9.614;2022-12-18T16:26:34;13.77;;;5.67;;
72674;SDS011;60752;53.962;9.614;2022-12-18T16:31:34;13.30;;;5.90;;
72674;SDS011;60752;53.962;9.614;2022-12-18T16:36:35;15.67;;;6.07;;
72674;SDS011;60752;53.962;9.614;2022-12-18T16:41:36;15.50;;;5.77;;
72674;SDS011;60752;53.962;9.614;2022-12-18T16:46:37;19.10;;;5.80;;
72674;SDS011;60752;53.962;9.614;2022-12-18T16:51:38;14.30;;;5.33;;
72674;SDS011;60752;53.962;9.614;2022-12-18T16:56:39;13.88;;;5.85;;
72674;SDS011;60752;53.962;9.614;2022-12-18T17:01:40;17.73;;;6.47;;
72674;SDS011;60752;53.962;9.614;2022-12-18T17:06:41;17.73;;;5.73;;
72674;SDS011;60752;53.962;9.614;2022-12-18T17:11:44;18.85;;;5.88;;
72674;SDS011;60752;53.962;9.614;2022-12-18T17:16:44;17.00;;;4.65;;
72674;SDS011;60752;53.962;9.614;2022-12-18T17:21:46;15.57;;;6.20;;
72674;SDS011;60752;53.962;9.614;2022-12-18T17:26:49;19.20;;;6.32;;
72674;SDS011;60752;53.962;9.614;2022-12-18T17:31:49;11.95;;;5.53;;
72674;SDS011;60752;53.962;9.614;2022-12-18T17:36:50;13.00;;;5.43;;
72674;SDS011;60752;53.962;9.614;2022-12-18T17:41:51;18.50;;;6.93;;
72674;SDS011;60752;53.962;9.614;2022-12-18T17:46:52;18.70;;;7.27;;
72674;SDS011;60752;53.962;9.614;2022-12-18T17:51:52;22.50;;;7.00;;
72674;SDS011;60752;53.962;9.614;2022-12-18T17:56:54;16.37;;;5.97;;
72674;SDS011;60752;53.962;9.614;2022-12-18T18:01:54;18.63;;;7.70;;
72674;SDS011;60752;53.962;9.614;2022-12-18T18:06:55;19.10;;;6.00;;
72674;SDS011;60752;53.962;9.614;2022-12-18T18:11:56;18.17;;;6.23;;
72674;SDS011;60752;53.962;9.614;2022-12-18T18:16:57;20.65;;;7.22;;
72674;SDS011;60752;53.962;9.614;2022-12-18T18:21:58;20.45;;;7.20;;
72674;SDS011;60752;53.962;9.614;2022-12-18T18:27:00;15.80;;;6.83;;
72674;SDS011;60752;53.962;9.614;2022-12-18T18:32:01;27.92;;;9.10;;
72674;SDS011;60752;53.962;9.614;2022-12-18T18:37:01;17.33;;;6.03;;
72674;SDS011;60752;53.962;9.614;2022-12-18T18:42:03;13.57;;;5.50;;
72674;SDS011;60752;53.962;9.614;2022-12-18T18:47:04;19.40;;;6.68;;
72674;SDS011;60752;53.962;9.614;2022-12-18T18:52:04;14.20;;;5.93;;
72674;SDS011;60752;53.962;9.614;2022-12-18T18:57:06;18.60;;;6.10;;
72674;SDS011;60752;53.962;9.614;2022-12-18T19:02:08;17.73;;;5.93;;
72674;SDS011;60752;53.962;9.614;2022-12-18T19:07:10;11.80;;;5.40;;
72674;SDS011;60752;53.962;9.614;2022-12-18T19:12:11;14.17;;;5.40;;
72674;SDS011;60752;53.962;9.614;2022-12-18T19:17:12;16.33;;;5.32;;
72674;SDS011;60752;53.962;9.614;2022-12-18T19:22:13;18.73;;;5.73;;
72674;SDS011;60752;53.962;9.614;2022-12-18T19:27:14;17.33;;;6.93;;
72674;SDS011;60752;53.962;9.614;2022-12-18T19:32:15;12.90;;;5.88;;
72674;SDS011;60752;53.962;9.614;2022-12-18T19:37:15;17.00;;;5.90;;
72674;SDS011;60752;53.962;9.614;2022-12-18T19:42:17;14.03;;;4.97;;
72674;SDS011;60752;53.962;9.614;2022-12-18T19:47:17;17.35;;;6.18;;
72674;SDS011;60752;53.962;9.614;2022-12-18T19:52:18;19.23;;;5.97;;
72674;SDS011;60752;53.962;9.614;2022-12-18T19:57:19;11.93;;;6.30;;
72674;SDS011;60752;53.962;9.614;2022-12-18T20:02:20;15.97;;;6.07;;
72674;SDS011;60752;53.962;9.614;2022-12-18T20:07:20;11.20;;;5.10;;
72674;SDS011;60752;53.962;9.614;2022-12-18T20:12:22;14.73;;;4.97;;
72674;SDS011;60752;53.962;9.614;2022-12-18T20:17:22;13.13;;;5.97;;
72674;SDS011;60752;53.962;9.614;2022-12-18T20:22:23;9.70;;;4.70;;
72674;SDS011;60752;53.962;9.614;2022-12-18T20:27:24;9.80;;;4.73;;
72674;SDS011;60752;53.962;9.614;2022-12-18T20:32:25;20.42;;;6.00;;
72674;SDS011;60752;53.962;9.614;2022-12-18T20:37:25;11.57;;;5.13;;
72674;SDS011;60752;53.962;9.614;2022-12-18T20:42:27;9.60;;;4.90;;
72674;SDS011;60752;53.962;9.614;2022-12-18T20:47:27;10.55;;;4.75;;
72674;SDS011;60752;53.962;9.614;2022-12-18T20:52:28;18.67;;;5.33;;
72674;SDS011;60752;53.962;9.614;2022-12-18T20:57:33;16.87;;;7.63;;
72674;SDS011;60752;53.962;9.614;2022-12-18T21:02:34;12.77;;;5.93;;
72674;SDS011;60752;53.962;9.614;2022-12-18T21:07:34;12.87;;;5.03;;
72674;SDS011;60752;53.962;9.614;2022-12-18T21:12:36;12.50;;;4.80;;
72674;SDS011;60752;53.962;9.614;2022-12-18T21:17:36;13.23;;;6.20;;
72674;SDS011;60752;53.962;9.614;2022-12-18T21:22:37;10.77;;;4.67;;
72674;SDS011;60752;53.962;9.614;2022-12-18T21:27:38;12.17;;;4.70;;
72674;SDS011;60752;53.962;9.614;2022-12-18T21:32:39;17.23;;;5.40;;
72674;SDS011;60752;53.962;9.614;2022-12-18T21:37:39;19.17;;;6.03;;
72674;SDS011;60752;53.962;9.614;2022-12-18T21:42:41;9.57;;;3.87;;
72674;SDS011;60752;53.962;9.614;2022-12-18T21:47:41;14.70;;;4.93;;
72674;SDS011;60752;53.962;9.614;2022-12-18T21:52:42;11.77;;;4.93;;
72674;SDS011;60752;53.962;9.614;2022-12-18T21:57:43;10.20;;;4.53;;
72674;SDS011;60752;53.962;9.614;2022-12-18T22:02:44;16.75;;;6.13;;
72674;SDS011;60752;53.962;9.614;2022-12-18T22:07:44;14.87;;;5.07;;
72674;SDS011;60752;53.962;9.614;2022-12-18T22:12:46;13.57;;;5.07;;
72674;SDS011;60752;53.962;9.614;2022-12-18T22:17:46;17.98;;;5.07;;
72674;SDS011;60752;53.962;9.614;2022-12-18T22:22:47;15.67;;;5.60;;
72674;SDS011;60752;53.962;9.614;2022-12-18T22:27:48;12.43;;;5.17;;
72674;SDS011;60752;53.962;9.614;2022-12-18T22:32:49;15.05;;;5.70;;
72674;SDS011;60752;53.962;9.614;2022-12-18T22:37:49;13.47;;;5.37;;
72674;SDS011;60752;53.962;9.614;2022-12-18T22:42:51;11.63;;;5.50;;
72674;SDS011;60752;53.962;9.614;2022-12-18T22:47:51;13.93;;;4.63;;
72674;SDS011;60752;53.962;9.614;2022-12-18T22:52:52;16.13;;;5.35;;
72674;SDS011;60752;53.962;9.614;2022-12-18T22:57:54;12.40;;;4.33;;
72674;SDS011;60752;53.962;9.614;2022-12-18T23:02:54;14.93;;;6.60;;
72674;SDS011;60752;53.962;9.614;2022-12-18T23:07:54;15.80;;;6.97;;
72674;SDS011;60752;53.962;9.614;2022-12-18T23:12:56;13.80;;;5.33;;
72674;SDS011;60752;53.962;9.614;2022-12-18T23:17:57;13.95;;;4.88;;
72674;SDS011;60752;53.962;9.614;2022-12-18T23:22:58;14.65;;;6.22;;
72674;SDS011;60752;53.962;9.614;2022-12-18T23:27:59;17.70;;;5.37;;
72674;SDS011;60752;53.962;9.614;2022-12-18T23:33:00;16.30;;;5.93;;
72674;SDS011;60752;53.962;9.614;2022-12-18T23:38:00;13.03;;;4.90;;
72674;SDS011;60752;53.962;9.614;2022-12-18T23:43:02;13.93;;;6.57;;
72674;SDS011;60752;53.962;9.614;2022-12-18T23:48:02;14.70;;;6.70;;
72674;SDS011;60752;53.962;9.614;2022-12-18T23:53:03;18.58;;;6.05;;
72674;SDS011;60752;53.962;9.614;2022-12-18T23:58:05;11.77;;;5.03;;
